createdAt,value
2023-08-17T00:00:43.616Z,27.23
2023-08-17T00:01:45.531Z,27.18
2023-08-17T00:02:47.444Z,27.22
2023-08-17T00:03:49.351Z,27.19
2023-08-17T00:04:51.430Z,27.22
2023-08-17T00:05:53.384Z,27.15
2023-08-17T00:06:55.459Z,27.20
2023-08-17T00:07:57.476Z,27.17
2023-08-17T00:08:59.308Z,27.19
2023-08-17T00:10:01.295Z,27.18
2023-08-17T00:11:03.261Z,27.18
2023-08-17T00:12:05.604Z,27.17
2023-08-17T00:13:08.575Z,27.12
2023-08-17T00:14:11.368Z,27.10
2023-08-17T00:15:13.216Z,27.14
2023-08-17T00:16:15.204Z,27.14
2023-08-17T00:17:17.344Z,27.12
2023-08-17T00:18:19.171Z,27.14
2023-08-17T00:19:21.039Z,27.15
2023-08-17T00:20:22.852Z,27.15
2023-08-17T00:21:25.041Z,27.14
2023-08-17T00:22:27.106Z,27.13
2023-08-17T00:23:29.546Z,27.13
2023-08-17T00:24:31.382Z,27.13
2023-08-17T00:25:33.218Z,27.13
2023-08-17T00:26:35.374Z,27.11
2023-08-17T00:27:37.409Z,27.12
2023-08-17T00:28:39.287Z,27.11
2023-08-17T00:29:41.313Z,26.96
2023-08-17T00:30:43.185Z,27.10
2023-08-17T00:31:45.105Z,27.10
2023-08-17T00:32:47.062Z,27.08
2023-08-17T00:33:48.943Z,27.09
2023-08-17T00:34:50.842Z,27.10
2023-08-17T00:35:52.943Z,27.08
2023-08-17T00:36:54.895Z,27.10
2023-08-17T00:37:56.979Z,27.01
2023-08-17T00:38:58.874Z,27.08
2023-08-17T00:40:00.857Z,27.05
2023-08-17T00:41:02.862Z,27.07
2023-08-17T00:42:05.002Z,27.04
2023-08-17T00:43:08.730Z,27.06
2023-08-17T00:44:10.541Z,27.07
2023-08-17T00:45:12.442Z,27.06
2023-08-17T00:46:15.324Z,27.05
2023-08-17T00:47:17.285Z,27.04
2023-08-17T00:48:19.458Z,26.97
2023-08-17T00:49:23.968Z,27.04
2023-08-17T00:50:27.522Z,27.03
2023-08-17T00:51:29.668Z,26.99
2023-08-17T00:52:33.786Z,27.03
2023-08-17T00:53:35.928Z,27.03
2023-08-17T00:54:38.652Z,27.01
2023-08-17T00:55:41.760Z,26.98
2023-08-17T00:56:43.926Z,27.01
2023-08-17T00:57:46.372Z,27.00
2023-08-17T00:58:48.525Z,27.02
2023-08-17T01:00:02.962Z,27.00
2023-08-17T01:01:05.380Z,27.03
2023-08-17T01:02:08.525Z,26.91
2023-08-17T01:03:13.224Z,27.02
2023-08-17T01:04:15.047Z,27.00
2023-08-17T01:05:16.940Z,26.95
2023-08-17T01:06:19.989Z,26.98
2023-08-17T01:07:22.623Z,26.97
2023-08-17T01:08:25.537Z,26.98
2023-08-17T01:09:27.519Z,26.97
2023-08-17T01:10:42.266Z,26.93
2023-08-17T01:11:56.549Z,26.96
2023-08-17T01:13:16.412Z,27.05
2023-08-17T01:14:32.243Z,27.04
2023-08-17T01:15:41.942Z,27.03
2023-08-17T01:16:55.861Z,27.03
2023-08-17T01:18:04.705Z,26.97
2023-08-17T01:19:12.761Z,27.00
2023-08-17T01:20:17.120Z,26.95
2023-08-17T01:21:23.686Z,26.95
2023-08-17T01:22:27.901Z,26.96
2023-08-17T01:23:29.996Z,26.95
2023-08-17T01:24:31.925Z,26.93
2023-08-17T01:25:39.890Z,26.85
2023-08-17T01:26:41.920Z,26.93
2023-08-17T01:27:46.474Z,26.91
2023-08-17T01:28:48.740Z,26.85
2023-08-17T01:29:51.156Z,26.84
2023-08-17T01:31:16.139Z,26.89
2023-08-17T01:32:29.238Z,26.96
2023-08-17T01:33:53.782Z,27.02
2023-08-17T01:35:07.935Z,26.96
2023-08-17T01:36:16.636Z,26.98
2023-08-17T01:37:22.185Z,26.88
2023-08-17T01:38:25.252Z,26.93
2023-08-17T01:39:38.254Z,26.92
2023-08-17T01:40:40.859Z,26.91
2023-08-17T01:41:43.461Z,26.90
2023-08-17T01:42:45.373Z,26.87
2023-08-17T01:43:48.942Z,26.82
2023-08-17T01:44:51.331Z,26.81
2023-08-17T01:45:53.598Z,26.86
2023-08-17T01:46:56.093Z,26.83
2023-08-17T01:47:58.687Z,26.82
2023-08-17T01:49:00.623Z,26.80
2023-08-17T01:50:02.682Z,26.81
2023-08-17T01:51:04.519Z,26.82
2023-08-17T01:52:06.604Z,26.78
2023-08-17T01:53:09.549Z,26.82
2023-08-17T01:54:11.472Z,26.80
2023-08-17T01:55:13.548Z,26.76
2023-08-17T01:56:15.759Z,26.78
2023-08-17T01:57:17.636Z,26.81
2023-08-17T01:58:19.597Z,26.81
2023-08-17T01:59:21.453Z,26.80
2023-08-17T02:00:23.375Z,26.79
2023-08-17T02:01:25.406Z,26.80
2023-08-17T02:02:27.412Z,26.69
2023-08-17T02:03:30.181Z,26.80
2023-08-17T02:04:32.109Z,26.76
2023-08-17T02:05:34.009Z,26.79
2023-08-17T02:06:35.901Z,26.78
2023-08-17T02:07:38.126Z,26.77
2023-08-17T02:08:40.622Z,26.72
2023-08-17T02:09:42.488Z,26.78
2023-08-17T02:10:44.413Z,26.71
2023-08-17T02:11:46.313Z,26.77
2023-08-17T02:12:48.656Z,26.77
2023-08-17T02:13:50.629Z,26.77
2023-08-17T02:14:52.566Z,26.76
2023-08-17T02:15:54.475Z,26.77
2023-08-17T02:16:56.459Z,26.76
2023-08-17T02:18:02.603Z,26.71
2023-08-17T02:19:04.788Z,26.77
2023-08-17T02:20:07.565Z,26.70
2023-08-17T02:21:10.622Z,26.77
2023-08-17T02:22:15.790Z,26.78
2023-08-17T02:23:17.622Z,26.76
2023-08-17T02:24:20.737Z,26.71
2023-08-17T02:25:22.698Z,26.75
2023-08-17T02:26:26.603Z,26.76
2023-08-17T02:27:28.706Z,26.73
2023-08-17T02:28:30.577Z,26.73
2023-08-17T02:29:32.451Z,26.73
2023-08-17T02:30:35.444Z,26.74
2023-08-17T02:31:37.402Z,26.68
2023-08-17T02:32:39.289Z,26.71
2023-08-17T02:33:41.367Z,26.72
2023-08-17T02:34:43.322Z,26.67
2023-08-17T02:35:50.301Z,26.71
2023-08-17T02:36:52.287Z,26.69
2023-08-17T02:37:54.254Z,26.69
2023-08-17T02:38:56.081Z,26.67
2023-08-17T02:39:58.369Z,26.64
2023-08-17T02:41:00.244Z,26.69
2023-08-17T02:42:02.161Z,26.69
2023-08-17T02:43:06.370Z,26.64
2023-08-17T02:44:08.388Z,26.69
2023-08-17T02:45:10.746Z,26.68
2023-08-17T02:46:12.699Z,26.68
2023-08-17T02:47:14.912Z,26.68
2023-08-17T02:48:16.812Z,26.67
2023-08-17T02:49:18.801Z,26.67
2023-08-17T02:50:20.685Z,26.66
2023-08-17T02:51:22.629Z,26.66
2023-08-17T02:52:24.732Z,26.65
2023-08-17T02:53:26.560Z,26.60
2023-08-17T02:54:28.418Z,26.64
2023-08-17T02:55:30.381Z,26.65
2023-08-17T02:56:32.287Z,26.64
2023-08-17T02:57:34.190Z,26.61
2023-08-17T02:58:36.038Z,26.64
2023-08-17T02:59:37.940Z,26.64
2023-08-17T03:00:40.690Z,26.60
2023-08-17T03:01:42.512Z,26.60
2023-08-17T03:02:44.514Z,26.62
2023-08-17T03:03:46.462Z,26.61
2023-08-17T03:04:48.314Z,26.61
2023-08-17T03:05:50.192Z,26.60
2023-08-17T03:06:52.535Z,26.54
2023-08-17T03:07:54.356Z,26.60
2023-08-17T03:08:56.309Z,26.60
2023-08-17T03:09:58.288Z,26.50
2023-08-17T03:11:00.112Z,26.58
2023-08-17T03:12:01.971Z,26.52
2023-08-17T03:13:03.987Z,26.58
2023-08-17T03:14:06.093Z,26.58
2023-08-17T03:15:08.158Z,26.58
2023-08-17T03:16:11.122Z,26.57
2023-08-17T03:17:13.014Z,26.51
2023-08-17T03:18:14.968Z,26.56
2023-08-17T03:19:17.002Z,26.58
2023-08-17T03:20:19.628Z,26.57
2023-08-17T03:21:21.809Z,26.57
2023-08-17T03:22:23.650Z,26.57
2023-08-17T03:23:25.516Z,26.57
2023-08-17T03:24:28.389Z,26.57
2023-08-17T03:25:31.229Z,26.57
2023-08-17T03:26:33.928Z,26.57
2023-08-17T03:27:35.993Z,26.52
2023-08-17T03:28:38.968Z,26.56
2023-08-17T03:29:41.056Z,26.52
2023-08-17T03:30:43.497Z,26.57
2023-08-17T03:31:45.351Z,26.56
2023-08-17T03:32:47.305Z,26.56
2023-08-17T03:33:49.746Z,26.48
2023-08-17T03:34:51.620Z,26.51
2023-08-17T03:35:53.542Z,26.51
2023-08-17T03:36:55.383Z,26.56
2023-08-17T03:37:57.647Z,26.53
2023-08-17T03:38:59.724Z,26.55
2023-08-17T03:40:04.461Z,26.55
2023-08-17T03:41:07.770Z,26.55
2023-08-17T03:42:09.647Z,26.54
2023-08-17T03:43:12.016Z,26.54
2023-08-17T03:44:15.025Z,26.54
2023-08-17T03:45:17.205Z,26.55
2023-08-17T03:46:19.212Z,26.53
2023-08-17T03:47:21.500Z,26.54
2023-08-17T03:48:23.997Z,26.51
2023-08-17T03:49:25.882Z,26.48
2023-08-17T03:50:29.234Z,26.49
2023-08-17T03:51:31.277Z,26.52
2023-08-17T03:52:33.103Z,26.48
2023-08-17T03:53:34.960Z,26.46
2023-08-17T03:54:37.537Z,26.51
2023-08-17T03:55:39.361Z,26.52
2023-08-17T03:56:42.974Z,26.52
2023-08-17T03:57:44.812Z,26.51
2023-08-17T03:58:46.748Z,26.51
2023-08-17T03:59:48.702Z,26.51
2023-08-17T04:00:52.212Z,26.51
2023-08-17T04:02:00.212Z,26.34
2023-08-17T04:03:02.253Z,26.51
2023-08-17T04:04:04.370Z,26.51
2023-08-17T04:05:07.228Z,26.51
2023-08-17T04:06:11.405Z,26.44
2023-08-17T04:07:21.347Z,26.51
2023-08-17T04:08:23.199Z,26.51
2023-08-17T04:09:25.229Z,26.51
2023-08-17T04:10:27.073Z,26.46
2023-08-17T04:11:29.851Z,26.45
2023-08-17T04:12:31.735Z,26.49
2023-08-17T04:13:33.642Z,26.48
2023-08-17T04:14:35.522Z,26.46
2023-08-17T04:15:37.685Z,26.43
2023-08-17T04:16:39.634Z,26.42
2023-08-17T04:17:41.754Z,26.45
2023-08-17T04:18:43.833Z,26.45
2023-08-17T04:19:46.388Z,26.46
2023-08-17T04:20:48.246Z,26.45
2023-08-17T04:21:51.580Z,26.46
2023-08-17T04:22:53.749Z,26.40
2023-08-17T04:23:55.636Z,26.46
2023-08-17T04:24:57.537Z,26.41
2023-08-17T04:26:00.661Z,26.47
2023-08-17T04:27:05.130Z,26.41
2023-08-17T04:28:07.136Z,26.47
2023-08-17T04:29:10.620Z,26.48
2023-08-17T04:30:13.297Z,26.44
2023-08-17T04:31:30.233Z,26.52
2023-08-17T04:32:36.141Z,26.53
2023-08-17T04:33:38.164Z,26.49
2023-08-17T04:34:40.161Z,26.49
2023-08-17T04:35:42.133Z,26.51
2023-08-17T04:36:44.070Z,26.49
2023-08-17T04:37:45.887Z,26.50
2023-08-17T04:38:47.841Z,26.45
2023-08-17T04:39:50.355Z,26.51
2023-08-17T04:40:55.767Z,26.52
2023-08-17T04:41:57.781Z,26.47
2023-08-17T04:43:05.200Z,26.53
2023-08-17T04:44:07.039Z,26.53
2023-08-17T04:45:09.324Z,26.52
2023-08-17T04:46:15.182Z,26.55
2023-08-17T04:47:17.744Z,26.54
2023-08-17T04:48:19.570Z,26.53
2023-08-17T04:49:22.805Z,26.53
2023-08-17T04:50:24.689Z,26.53
2023-08-17T04:51:28.829Z,26.53
2023-08-17T04:52:32.335Z,26.53
2023-08-17T04:53:34.263Z,26.52
2023-08-17T04:54:36.714Z,26.52
2023-08-17T04:55:38.543Z,26.53
2023-08-17T04:56:40.501Z,26.52
2023-08-17T04:57:42.386Z,26.51
2023-08-17T04:58:46.319Z,26.51
2023-08-17T04:59:49.502Z,26.52
2023-08-17T05:00:53.044Z,26.44
2023-08-17T05:01:55.689Z,26.48
2023-08-17T05:02:58.551Z,26.48
2023-08-17T05:04:05.660Z,26.51
2023-08-17T05:05:08.755Z,26.49
2023-08-17T05:06:10.608Z,26.52
2023-08-17T05:07:13.241Z,26.53
2023-08-17T05:08:15.145Z,26.48
2023-08-17T05:09:17.551Z,26.53
2023-08-17T05:10:19.522Z,26.54
2023-08-17T05:11:22.127Z,26.56
2023-08-17T05:12:25.020Z,26.56
2023-08-17T05:13:27.904Z,26.57
2023-08-17T05:14:32.947Z,26.59
2023-08-17T05:15:34.794Z,26.61
2023-08-17T05:16:39.572Z,26.59
2023-08-17T05:17:41.722Z,26.59
2023-08-17T05:18:45.854Z,26.70
2023-08-17T05:19:52.722Z,26.63
2023-08-17T05:20:55.078Z,26.73
2023-08-17T05:21:57.089Z,26.78
2023-08-17T05:22:58.961Z,26.69
2023-08-17T05:24:00.805Z,26.75
2023-08-17T05:25:03.013Z,26.78
2023-08-17T05:26:07.542Z,26.86
2023-08-17T05:27:09.654Z,26.89
2023-08-17T05:28:12.396Z,26.92
2023-08-17T05:29:14.314Z,26.91
2023-08-17T05:30:17.357Z,26.97
2023-08-17T05:31:19.310Z,26.99
2023-08-17T05:32:23.505Z,27.00
2023-08-17T05:33:26.618Z,27.05
2023-08-17T05:34:28.549Z,27.02
2023-08-17T05:35:31.244Z,27.08
2023-08-17T05:36:33.604Z,27.14
2023-08-17T05:37:35.471Z,27.16
2023-08-17T05:38:37.336Z,27.12
2023-08-17T05:39:42.353Z,27.21
2023-08-17T05:40:44.519Z,27.25
2023-08-17T05:41:46.388Z,27.25
2023-08-17T05:42:48.200Z,27.28
2023-08-17T05:43:50.239Z,27.31
2023-08-17T05:44:52.289Z,27.31
2023-08-17T05:45:54.417Z,27.34
2023-08-17T05:46:56.299Z,27.33
2023-08-17T05:47:58.259Z,27.40
2023-08-17T05:49:00.431Z,27.42
2023-08-17T05:50:02.358Z,27.42
2023-08-17T05:51:04.348Z,27.47
2023-08-17T05:52:06.525Z,27.47
2023-08-17T05:53:08.367Z,27.45
2023-08-17T05:54:10.279Z,27.52
2023-08-17T05:55:12.360Z,27.49
2023-08-17T05:56:14.303Z,27.48
2023-08-17T05:57:16.318Z,27.56
2023-08-17T05:58:18.473Z,27.58
2023-08-17T05:59:20.368Z,27.59
2023-08-17T06:00:22.214Z,27.53
2023-08-17T06:01:24.149Z,27.56
2023-08-17T06:02:25.997Z,27.62
2023-08-17T06:03:27.998Z,27.62
2023-08-17T06:04:29.891Z,27.64
2023-08-17T06:05:31.854Z,27.65
2023-08-17T06:06:33.786Z,27.66
2023-08-17T06:07:36.044Z,27.67
2023-08-17T06:08:38.027Z,27.67
2023-08-17T06:09:39.902Z,27.64
2023-08-17T06:10:42.085Z,27.66
2023-08-17T06:11:43.950Z,27.61
2023-08-17T06:12:45.867Z,27.70
2023-08-17T06:13:47.726Z,27.72
2023-08-17T06:14:49.597Z,27.71
2023-08-17T06:15:51.626Z,27.71
2023-08-17T06:16:53.714Z,27.72
2023-08-17T06:17:55.746Z,27.72
2023-08-17T06:18:57.702Z,27.69
2023-08-17T06:19:59.560Z,27.73
2023-08-17T06:21:01.469Z,27.68
2023-08-17T06:22:03.434Z,27.74
2023-08-17T06:23:05.474Z,27.72
2023-08-17T06:24:07.607Z,27.74
2023-08-17T06:25:09.893Z,27.73
2023-08-17T06:26:11.744Z,27.74
2023-08-17T06:27:16.044Z,27.72
2023-08-17T06:28:17.876Z,27.77
2023-08-17T06:29:19.916Z,27.73
2023-08-17T06:30:22.011Z,27.74
2023-08-17T06:31:28.439Z,27.71
2023-08-17T06:32:31.623Z,27.78
2023-08-17T06:33:33.631Z,27.75
2023-08-17T06:34:37.842Z,27.78
2023-08-17T06:35:39.933Z,27.76
2023-08-17T06:36:41.812Z,27.80
2023-08-17T06:37:43.734Z,27.76
2023-08-17T06:38:45.706Z,27.76
2023-08-17T06:39:47.575Z,27.79
2023-08-17T06:40:49.522Z,27.74
2023-08-17T06:41:51.364Z,27.80
2023-08-17T06:42:55.459Z,27.79
2023-08-17T06:43:57.612Z,27.80
2023-08-17T06:44:59.540Z,27.81
2023-08-17T06:46:02.926Z,27.75
2023-08-17T06:47:05.076Z,27.82
2023-08-17T06:48:07.448Z,27.81
2023-08-17T06:49:09.741Z,27.82
2023-08-17T06:50:13.189Z,27.82
2023-08-17T06:51:15.293Z,27.80
2023-08-17T06:52:17.190Z,27.82
2023-08-17T06:53:19.036Z,27.78
2023-08-17T06:54:21.197Z,27.79
2023-08-17T06:55:23.140Z,27.83
2023-08-17T06:56:25.020Z,27.80
2023-08-17T06:57:27.189Z,27.75
2023-08-17T06:58:29.377Z,27.84
2023-08-17T06:59:31.321Z,27.82
2023-08-17T07:00:33.324Z,27.83
2023-08-17T07:01:35.250Z,27.84
2023-08-17T07:02:52.040Z,27.85
2023-08-17T07:03:57.053Z,27.90
2023-08-17T07:04:58.898Z,27.85
2023-08-17T07:06:00.876Z,27.88
2023-08-17T07:07:03.231Z,27.88
2023-08-17T07:08:05.586Z,27.81
2023-08-17T07:09:08.075Z,27.88
2023-08-17T07:10:11.685Z,27.87
2023-08-17T07:11:13.632Z,27.88
2023-08-17T07:12:15.524Z,27.90
2023-08-17T07:13:17.410Z,27.91
2023-08-17T07:14:21.729Z,27.91
2023-08-17T07:15:24.568Z,27.92
2023-08-17T07:16:26.490Z,27.93
2023-08-17T07:17:28.653Z,27.94
2023-08-17T07:18:30.834Z,27.91
2023-08-17T07:19:57.613Z,27.90
2023-08-17T07:20:56.141Z,28.01
2023-08-17T07:21:59.074Z,28.00
2023-08-17T07:23:01.169Z,27.98
2023-08-17T07:24:13.615Z,27.98
2023-08-17T07:25:15.639Z,28.01
2023-08-17T07:26:20.279Z,28.01
2023-08-17T07:27:22.315Z,27.96
2023-08-17T07:28:24.413Z,28.00
2023-08-17T07:29:26.601Z,27.97
2023-08-17T07:30:28.641Z,27.99
2023-08-17T07:31:30.536Z,27.99
2023-08-17T07:32:33.325Z,27.96
2023-08-17T07:33:35.162Z,27.97
2023-08-17T07:34:37.910Z,28.00
2023-08-17T07:35:39.941Z,27.99
2023-08-17T07:36:42.993Z,27.98
2023-08-17T07:37:50.420Z,28.03
2023-08-17T07:39:01.768Z,28.08
2023-08-17T07:40:06.445Z,28.03
2023-08-17T07:41:08.321Z,28.03
2023-08-17T07:42:10.406Z,28.04
2023-08-17T07:43:12.274Z,28.09
2023-08-17T07:44:14.270Z,28.07
2023-08-17T07:45:16.162Z,28.09
2023-08-17T07:46:18.247Z,28.10
2023-08-17T07:47:20.131Z,28.08
2023-08-17T07:48:22.119Z,28.11
2023-08-17T07:49:32.186Z,28.12
2023-08-17T07:50:35.268Z,28.13
2023-08-17T07:51:37.271Z,28.14
2023-08-17T07:52:39.211Z,28.13
2023-08-17T07:53:41.202Z,28.14
2023-08-17T07:54:43.000Z,28.14
2023-08-17T07:55:45.115Z,28.14
2023-08-17T07:56:47.077Z,28.11
2023-08-17T07:57:48.935Z,28.11
2023-08-17T07:58:50.773Z,28.13
2023-08-17T07:59:52.890Z,28.16
2023-08-17T08:00:54.696Z,28.13
2023-08-17T08:01:57.091Z,28.17
2023-08-17T08:02:59.231Z,28.18
2023-08-17T08:04:01.136Z,28.18
2023-08-17T08:05:03.211Z,28.19
2023-08-17T08:06:05.301Z,28.19
2023-08-17T08:07:07.521Z,28.21
2023-08-17T08:08:09.438Z,28.22
2023-08-17T08:09:11.386Z,28.22
2023-08-17T08:10:13.355Z,28.16
2023-08-17T08:11:15.376Z,28.22
2023-08-17T08:12:17.325Z,28.25
2023-08-17T08:13:19.148Z,28.25
2023-08-17T08:14:21.005Z,28.25
2023-08-17T08:15:23.084Z,28.25
2023-08-17T08:16:25.007Z,28.26
2023-08-17T08:17:27.900Z,28.19
2023-08-17T08:18:29.968Z,28.25
2023-08-17T08:19:33.811Z,28.22
2023-08-17T08:20:35.691Z,28.29
2023-08-17T08:21:37.624Z,28.29
2023-08-17T08:22:39.556Z,28.23
2023-08-17T08:23:41.451Z,28.23
2023-08-17T08:24:44.195Z,28.28
2023-08-17T08:25:47.194Z,28.29
2023-08-17T08:26:49.333Z,28.30
2023-08-17T08:27:51.245Z,28.29
2023-08-17T08:28:53.322Z,28.29
2023-08-17T08:29:55.319Z,28.30
2023-08-17T08:31:02.229Z,28.30
2023-08-17T08:32:04.546Z,28.31
2023-08-17T08:33:06.468Z,28.31
2023-08-17T08:34:08.386Z,28.30
2023-08-17T08:35:10.282Z,28.30
2023-08-17T08:36:12.211Z,28.27
2023-08-17T08:37:14.773Z,28.30
2023-08-17T08:38:16.655Z,28.25
2023-08-17T08:39:18.558Z,28.26
2023-08-17T08:40:21.348Z,28.27
2023-08-17T08:41:26.069Z,28.30
2023-08-17T08:42:28.349Z,28.32
2023-08-17T08:43:31.037Z,28.30
2023-08-17T08:44:33.124Z,28.30
2023-08-17T08:45:38.386Z,28.27
2023-08-17T08:46:43.251Z,28.30
2023-08-17T08:47:46.393Z,28.28
2023-08-17T08:48:52.339Z,28.24
2023-08-17T08:50:04.853Z,28.31
2023-08-17T08:51:10.297Z,28.33
2023-08-17T08:52:17.683Z,28.32
2023-08-17T08:53:29.158Z,28.26
2023-08-17T08:54:37.717Z,28.35
2023-08-17T08:55:48.080Z,28.29
2023-08-17T08:57:04.519Z,28.33
2023-08-17T08:58:07.597Z,28.38
2023-08-17T08:59:10.178Z,28.33
2023-08-17T09:00:13.479Z,28.29
2023-08-17T09:01:17.834Z,28.30
2023-08-17T09:02:19.757Z,28.26
2023-08-17T09:03:22.699Z,28.26
2023-08-17T09:04:26.288Z,28.28
2023-08-17T09:05:28.732Z,28.29
2023-08-17T09:06:31.670Z,28.28
2023-08-17T09:07:34.323Z,28.27
2023-08-17T09:08:36.557Z,28.27
2023-08-17T09:09:39.195Z,28.28
2023-08-17T09:10:42.181Z,28.28
2023-08-17T09:11:45.505Z,28.27
2023-08-17T09:12:51.034Z,28.27
2023-08-17T09:13:54.560Z,28.28
2023-08-17T09:14:57.253Z,28.28
2023-08-17T09:16:07.349Z,28.28
2023-08-17T09:17:09.914Z,28.31
2023-08-17T09:18:14.049Z,28.29
2023-08-17T09:19:16.297Z,28.29
2023-08-17T09:20:47.109Z,28.35
2023-08-17T09:21:51.516Z,28.31
2023-08-17T09:22:54.819Z,28.34
2023-08-17T09:23:59.558Z,28.32
2023-08-17T09:25:03.487Z,28.32
2023-08-17T09:26:12.493Z,28.28
2023-08-17T09:27:14.987Z,28.32
2023-08-17T09:28:19.267Z,28.30
2023-08-17T09:29:22.234Z,28.24
2023-08-17T09:30:24.094Z,28.27
2023-08-17T09:31:26.121Z,28.30
2023-08-17T09:32:31.585Z,28.28
2023-08-17T09:33:34.271Z,28.28
2023-08-17T09:34:36.088Z,28.31
2023-08-17T09:35:38.160Z,28.27
2023-08-17T09:36:40.620Z,28.25
2023-08-17T09:37:42.439Z,28.29
2023-08-17T09:38:44.244Z,28.27
2023-08-17T09:39:46.112Z,28.31
2023-08-17T09:40:48.961Z,28.30
2023-08-17T09:41:50.804Z,28.30
2023-08-17T09:42:55.470Z,28.30
2023-08-17T09:43:57.271Z,28.31
2023-08-17T09:45:01.236Z,28.31
2023-08-17T09:46:04.342Z,28.25
2023-08-17T09:47:06.742Z,28.30
2023-08-17T09:48:09.745Z,28.31
2023-08-17T09:49:11.742Z,28.30
2023-08-17T09:50:13.861Z,28.29
2023-08-17T09:51:18.875Z,28.29
2023-08-17T09:52:27.364Z,28.23
2023-08-17T09:53:29.772Z,28.33
2023-08-17T09:54:32.453Z,28.31
2023-08-17T09:55:35.150Z,28.30
2023-08-17T09:56:38.315Z,28.31
2023-08-17T09:57:42.616Z,28.29
2023-08-17T09:58:44.667Z,28.30
2023-08-17T09:59:47.581Z,28.31
2023-08-17T10:00:51.841Z,28.29
2023-08-17T10:01:57.370Z,28.23
2023-08-17T10:03:07.463Z,28.26
2023-08-17T10:04:12.691Z,28.31
2023-08-17T10:05:22.431Z,28.17
2023-08-17T10:06:28.067Z,28.32
2023-08-17T10:07:33.712Z,28.13
2023-08-17T10:08:44.978Z,28.26
2023-08-17T10:09:54.896Z,28.31
2023-08-17T10:10:59.088Z,28.31
2023-08-17T10:12:07.844Z,28.30
2023-08-17T10:13:12.232Z,28.32
2023-08-17T10:14:21.318Z,28.29
2023-08-17T10:15:30.800Z,28.30
2023-08-17T10:16:46.454Z,28.30
2023-08-17T10:17:59.782Z,28.34
2023-08-17T10:19:26.820Z,28.33
2023-08-17T10:20:32.007Z,28.37
2023-08-17T10:21:40.725Z,28.30
2023-08-17T10:22:53.182Z,28.33
2023-08-17T10:23:57.160Z,28.32
2023-08-17T10:25:01.312Z,28.32
2023-08-17T10:26:04.111Z,28.28
2023-08-17T10:27:07.227Z,28.28
2023-08-17T10:28:11.892Z,28.27
2023-08-17T10:29:17.240Z,28.25
2023-08-17T10:30:19.772Z,28.29
2023-08-17T10:31:22.410Z,28.21
2023-08-17T10:32:25.823Z,28.27
2023-08-17T10:33:29.648Z,28.26
2023-08-17T10:34:31.812Z,28.27
2023-08-17T10:35:35.704Z,28.22
2023-08-17T10:36:39.063Z,28.21
2023-08-17T10:37:41.883Z,28.25
2023-08-17T10:38:43.938Z,28.22
2023-08-17T10:39:49.923Z,28.25
2023-08-17T10:41:11.195Z,28.30
2023-08-17T10:42:14.009Z,28.31
2023-08-17T10:43:15.885Z,28.29
2023-08-17T10:44:19.672Z,28.27
2023-08-17T10:45:33.273Z,28.28
2023-08-17T10:46:37.018Z,28.30
2023-08-17T10:47:39.526Z,28.28
2023-08-17T10:48:44.820Z,28.26
2023-08-17T10:49:46.693Z,28.25
2023-08-17T10:51:03.208Z,28.23
2023-08-17T10:52:07.765Z,28.30
2023-08-17T10:53:12.325Z,28.28
2023-08-17T10:54:14.359Z,28.25
2023-08-17T10:55:16.754Z,28.27
2023-08-17T10:56:18.903Z,28.15
2023-08-17T10:57:30.478Z,28.16
2023-08-17T10:58:34.186Z,28.28
2023-08-17T10:59:36.018Z,28.28
2023-08-17T11:00:41.160Z,28.25
2023-08-17T11:01:43.139Z,28.27
2023-08-17T11:02:45.930Z,28.26
2023-08-17T11:03:47.783Z,28.23
2023-08-17T11:04:53.892Z,28.21
2023-08-17T11:05:57.852Z,28.26
2023-08-17T11:07:05.185Z,28.27
2023-08-17T11:08:10.268Z,28.28
2023-08-17T11:09:12.980Z,28.28
2023-08-17T11:10:20.552Z,28.27
2023-08-17T11:11:26.779Z,28.27
2023-08-17T11:12:28.834Z,28.27
2023-08-17T11:13:33.366Z,28.27
2023-08-17T11:14:35.700Z,28.26
2023-08-17T11:15:43.943Z,28.26
2023-08-17T11:16:48.347Z,28.26
2023-08-17T11:17:50.257Z,28.27
2023-08-17T11:18:53.170Z,28.25
2023-08-17T11:19:54.983Z,28.26
2023-08-17T11:20:56.891Z,28.25
2023-08-17T11:21:58.696Z,28.21
2023-08-17T11:23:01.031Z,28.24
2023-08-17T11:24:03.837Z,28.25
2023-08-17T11:25:06.861Z,28.22
2023-08-17T11:26:09.091Z,28.24
2023-08-17T11:27:11.261Z,28.25
2023-08-17T11:28:17.334Z,28.24
2023-08-17T11:29:19.525Z,28.26
2023-08-17T11:30:24.889Z,28.25
2023-08-17T11:31:26.866Z,28.25
2023-08-17T11:32:29.147Z,28.26
2023-08-17T11:33:33.383Z,28.23
2023-08-17T11:34:37.274Z,28.21
2023-08-17T11:35:40.578Z,28.27
2023-08-17T11:36:42.426Z,28.26
2023-08-17T11:37:44.977Z,28.24
2023-08-17T11:38:47.997Z,28.26
2023-08-17T11:39:49.795Z,28.09
2023-08-17T11:40:51.910Z,28.25
2023-08-17T11:41:53.961Z,28.25
2023-08-17T11:42:56.159Z,28.25
2023-08-17T11:43:59.703Z,28.24
2023-08-17T11:45:01.567Z,28.26
2023-08-17T11:46:04.048Z,28.25
2023-08-17T11:47:06.476Z,28.26
2023-08-17T11:48:08.613Z,28.27
2023-08-17T11:49:10.538Z,28.26
2023-08-17T11:50:20.762Z,28.20
2023-08-17T11:51:32.782Z,28.29
2023-08-17T11:52:34.562Z,28.30
2023-08-17T11:53:38.107Z,28.29
2023-08-17T11:54:43.179Z,28.26
2023-08-17T11:55:45.103Z,28.29
2023-08-17T11:56:46.902Z,28.28
2023-08-17T11:57:48.742Z,28.27
2023-08-17T11:58:51.011Z,28.26
2023-08-17T11:59:57.268Z,28.25
2023-08-17T12:00:59.274Z,28.23
2023-08-17T12:02:02.188Z,28.27
2023-08-17T12:03:05.257Z,28.19
2023-08-17T12:04:07.992Z,28.28
2023-08-17T12:05:10.607Z,28.24
2023-08-17T12:06:15.983Z,28.27
2023-08-17T12:07:19.636Z,28.25
2023-08-17T12:08:21.606Z,28.25
2023-08-17T12:09:23.521Z,28.28
2023-08-17T12:10:25.369Z,28.28
2023-08-17T12:11:27.319Z,28.27
2023-08-17T12:12:30.007Z,28.26
2023-08-17T12:13:34.658Z,28.27
2023-08-17T12:14:36.456Z,28.28
2023-08-17T12:15:39.472Z,28.27
2023-08-17T12:16:49.685Z,28.27
2023-08-17T12:17:53.971Z,28.28
2023-08-17T12:18:56.126Z,28.31
2023-08-17T12:20:00.937Z,28.28
2023-08-17T12:21:02.979Z,28.30
2023-08-17T12:22:04.988Z,28.30
2023-08-17T12:23:06.962Z,28.28
2023-08-17T12:24:11.215Z,28.29
2023-08-17T12:25:13.391Z,28.30
2023-08-17T12:26:22.756Z,28.30
2023-08-17T12:27:25.286Z,28.32
2023-08-17T12:28:27.106Z,28.31
2023-08-17T12:29:29.142Z,28.30
2023-08-17T12:30:33.554Z,28.29
2023-08-17T12:31:35.694Z,28.31
2023-08-17T12:32:38.050Z,28.31
2023-08-17T12:33:39.882Z,28.31
2023-08-17T12:34:41.716Z,28.30
2023-08-17T12:35:43.689Z,28.30
2023-08-17T12:36:45.925Z,28.27
2023-08-17T12:37:47.717Z,28.23
2023-08-17T12:38:49.930Z,28.31
2023-08-17T12:39:51.780Z,28.31
2023-08-17T12:40:54.202Z,28.32
2023-08-17T12:41:55.996Z,28.28
2023-08-17T12:42:57.900Z,28.32
2023-08-17T12:44:00.301Z,28.29
2023-08-17T12:45:05.476Z,28.32
2023-08-17T12:46:07.803Z,28.33
2023-08-17T12:47:09.650Z,28.32
2023-08-17T12:48:11.754Z,28.34
2023-08-17T12:49:13.577Z,28.28
2023-08-17T12:50:15.634Z,28.29
2023-08-17T12:51:17.522Z,28.32
2023-08-17T12:52:19.452Z,28.32
2023-08-17T12:53:21.247Z,28.31
2023-08-17T12:54:23.157Z,28.32
2023-08-17T12:55:25.178Z,28.32
2023-08-17T12:56:27.124Z,28.33
2023-08-17T12:57:29.203Z,28.24
2023-08-17T12:58:31.853Z,28.30
2023-08-17T12:59:34.167Z,28.27
2023-08-17T13:00:35.977Z,28.33
2023-08-17T13:01:37.941Z,28.31
2023-08-17T13:02:39.854Z,28.33
2023-08-17T13:03:41.716Z,28.22
2023-08-17T13:04:43.699Z,28.30
2023-08-17T13:05:45.520Z,28.33
2023-08-17T13:06:49.981Z,28.32
2023-08-17T13:07:52.187Z,28.32
2023-08-17T13:08:54.022Z,28.31
2023-08-17T13:09:55.874Z,28.34
2023-08-17T13:10:58.081Z,28.34
2023-08-17T13:11:59.974Z,28.32
2023-08-17T13:13:01.930Z,28.31
2023-08-17T13:14:03.808Z,28.26
2023-08-17T13:15:06.363Z,28.32
2023-08-17T13:16:08.397Z,28.34
2023-08-17T13:17:10.324Z,28.31
2023-08-17T13:18:12.368Z,28.33
2023-08-17T13:19:14.287Z,28.35
2023-08-17T13:20:16.162Z,28.34
2023-08-17T13:21:19.213Z,28.31
2023-08-17T13:22:21.073Z,28.36
2023-08-17T13:23:23.303Z,28.30
2023-08-17T13:24:25.101Z,28.31
2023-08-17T13:25:27.043Z,28.34
2023-08-17T13:26:28.815Z,28.29
2023-08-17T13:27:30.621Z,28.35
2023-08-17T13:28:32.599Z,28.34
2023-08-17T13:29:34.583Z,28.30
2023-08-17T13:30:36.417Z,28.36
2023-08-17T13:31:38.231Z,28.36
2023-08-17T13:32:40.231Z,28.35
2023-08-17T13:33:42.306Z,28.28
2023-08-17T13:34:44.181Z,28.35
2023-08-17T13:35:46.095Z,28.36